Terminal Aerodrome Forecast
Issued by NWS Duluth, MN

Home | Current Version | Previous Version | Text Only | Print | Product List | Glossary On
Versions: 1 2 3 4 5 6 7 8 9 10 11 12 13 14 15 16 17 18 19 20 21 22 23 24 25 26
000
FTUS43 KDLH 041423 AAB
TAFINL
TAF AMD
KINL 041423Z 0414/0512 14008KT 1SM -SN BR BKN012 OVC028
      TEMPO 0414/0415 1/4SM SN FZFG
     FM041500 14008KT 1SM -SN BR BKN008
      TEMPO 0417/0419 1/2SM -SN FG BKN006
     FM042300 17007KT 4SM -SHSN BR OVC008
     FM051100 24005KT 6SM BR VCSH SCT008 OVC012=

USA.gov is the U.S. government's official web portal to all federal, state and local government web resources and services.